createdAt,value
2018-07-11T00:01:53.836Z,12.27
2018-07-11T00:04:24.251Z,13.67
2018-07-11T00:06:54.231Z,12.43
2018-07-11T00:09:24.204Z,10.63
2018-07-11T00:11:54.249Z,11.43
2018-07-11T00:14:24.140Z,12.40
2018-07-11T00:16:59.303Z,12.37
2018-07-11T00:19:29.331Z,11.43
2018-07-11T00:21:59.472Z,11.20
2018-07-11T00:24:29.596Z,11.07
2018-07-11T00:26:59.712Z,10.43
2018-07-11T00:29:29.872Z,10.47
2018-07-11T00:31:59.947Z,10.07
2018-07-11T00:34:30.196Z,10.90
2018-07-11T00:37:00.355Z,11.23
2018-07-11T00:39:30.463Z,10.37
2018-07-11T00:42:00.515Z,9.33
2018-07-11T00:44:30.611Z,9.67
2018-07-11T00:47:00.708Z,10.40
2018-07-11T00:49:30.761Z,10.93
2018-07-11T00:52:00.939Z,9.83
2018-07-11T00:54:31.024Z,11.07
2018-07-11T00:57:01.644Z,10.10
2018-07-11T00:59:32.949Z,11.37
2018-07-11T01:02:05.509Z,10.53
2018-07-11T01:04:35.888Z,10.53
2018-07-11T01:07:07.390Z,9.83
2018-07-11T01:09:45.838Z,11.70
2018-07-11T01:12:15.895Z,10.87
2018-07-11T01:14:46.487Z,11.77
2018-07-11T01:17:21.530Z,11.83
2018-07-11T01:19:52.132Z,10.93
2018-07-11T01:22:22.273Z,10.70
2018-07-11T01:24:52.279Z,10.27
2018-07-11T01:27:22.228Z,11.23
2018-07-11T01:29:52.249Z,11.07
2018-07-11T01:32:22.182Z,10.43
2018-07-11T01:34:52.069Z,10.37
2018-07-11T01:37:22.059Z,11.10
2018-07-11T01:39:52.124Z,10.30
2018-07-11T01:42:22.074Z,10.80
2018-07-11T01:44:52.120Z,10.33
2018-07-11T01:47:22.023Z,10.57
2018-07-11T01:49:52.071Z,10.77
2018-07-11T01:52:32.936Z,10.43
2018-07-11T01:55:02.923Z,11.23
2018-07-11T01:57:32.847Z,10.67
2018-07-11T02:00:02.880Z,10.13
2018-07-11T02:02:33.045Z,11.30
2018-07-11T02:05:03.075Z,10.67
2018-07-11T02:07:33.218Z,11.40
2018-07-11T02:10:03.227Z,11.73
2018-07-11T02:12:33.295Z,10.83
2018-07-11T02:15:06.252Z,11.00
2018-07-11T02:17:37.927Z,10.20
2018-07-11T02:20:12.095Z,9.17
2018-07-11T02:22:42.264Z,9.40
2018-07-11T02:25:13.868Z,10.07
2018-07-11T02:27:43.939Z,9.43
2018-07-11T02:30:15.348Z,9.00
2018-07-11T02:32:45.443Z,9.17
2018-07-11T02:35:15.608Z,8.87
2018-07-11T02:37:45.436Z,8.53
2018-07-11T02:40:15.291Z,10.50
2018-07-11T02:42:45.248Z,24.23
2018-07-11T02:45:15.437Z,20.63
2018-07-11T02:47:45.411Z,18.80
2018-07-11T02:50:15.384Z,14.33
2018-07-11T02:52:45.365Z,12.50
2018-07-11T02:55:15.388Z,11.20
2018-07-11T02:57:45.459Z,8.70
2018-07-11T03:00:15.390Z,8.90
2018-07-11T03:02:45.532Z,9.20
2018-07-11T03:05:15.709Z,9.57
2018-07-11T03:07:45.736Z,9.23
2018-07-11T03:10:15.861Z,8.63
2018-07-11T03:12:46.724Z,9.40
2018-07-11T03:15:16.676Z,9.17
2018-07-11T03:17:46.812Z,9.27
2018-07-11T03:20:18.540Z,10.03
2018-07-11T03:22:53.727Z,10.40
2018-07-11T03:25:26.680Z,9.63
2018-07-11T03:27:57.200Z,10.23
2018-07-11T03:30:27.191Z,9.03
2018-07-11T03:32:57.276Z,9.50
2018-07-11T03:35:27.263Z,9.20
2018-07-11T03:37:57.204Z,10.20
2018-07-11T03:40:27.047Z,8.67
2018-07-11T03:42:56.951Z,9.30
2018-07-11T03:45:27.071Z,9.33
2018-07-11T03:47:57.027Z,9.23
2018-07-11T03:50:27.002Z,9.97
2018-07-11T03:52:56.891Z,10.17
2018-07-11T03:55:26.816Z,10.50
2018-07-11T03:57:56.678Z,10.60
2018-07-11T04:00:26.823Z,12.07
2018-07-11T04:02:57.131Z,13.37
2018-07-11T04:05:27.050Z,13.20
2018-07-11T04:07:57.060Z,13.57
2018-07-11T04:10:27.057Z,12.47
2018-07-11T04:12:59.667Z,13.03
2018-07-11T04:15:29.575Z,12.97
2018-07-11T04:17:59.547Z,13.03
2018-07-11T04:20:29.471Z,13.60
2018-07-11T04:22:59.313Z,13.43
2018-07-11T04:25:29.651Z,14.27
2018-07-11T04:27:59.832Z,14.37
2018-07-11T04:30:30.058Z,13.03
2018-07-11T04:33:00.013Z,13.97
2018-07-11T04:35:30.007Z,14.00
2018-07-11T04:38:00.061Z,13.93
2018-07-11T04:40:30.116Z,13.57
2018-07-11T04:43:00.510Z,13.43
2018-07-11T04:45:30.375Z,13.83
2018-07-11T04:48:00.469Z,13.40
2018-07-11T04:50:30.568Z,13.23
2018-07-11T04:53:03.287Z,12.80
2018-07-11T04:55:33.385Z,14.57
2018-07-11T04:58:03.275Z,14.23
2018-07-11T05:00:33.133Z,13.37
2018-07-11T05:03:03.255Z,13.30
2018-07-11T05:05:33.154Z,12.70
2018-07-11T05:08:02.983Z,13.07
2018-07-11T05:10:32.934Z,12.87
2018-07-11T05:13:02.796Z,12.53
2018-07-11T05:15:32.793Z,13.27
2018-07-11T05:18:02.653Z,12.63
2018-07-11T05:20:32.747Z,12.50
2018-07-11T05:23:02.803Z,13.67
2018-07-11T05:25:34.125Z,12.80
2018-07-11T05:28:04.145Z,13.03
2018-07-11T05:30:34.297Z,14.23
2018-07-11T05:33:04.197Z,13.23
2018-07-11T05:35:34.127Z,13.70
2018-07-11T05:38:04.152Z,13.57
2018-07-11T05:40:34.003Z,15.10
2018-07-11T05:43:03.944Z,16.77
2018-07-11T05:45:33.815Z,17.70
2018-07-11T05:48:03.682Z,15.67
2018-07-11T05:50:33.621Z,16.03
2018-07-11T05:53:03.585Z,16.20
2018-07-11T05:55:33.406Z,15.80
2018-07-11T05:58:03.540Z,14.73
2018-07-11T06:00:33.457Z,14.70
2018-07-11T06:03:03.473Z,14.90
2018-07-11T06:05:34.302Z,14.17
2018-07-11T06:08:04.444Z,12.93
2018-07-11T06:10:34.559Z,12.57
2018-07-11T06:13:04.584Z,13.53
2018-07-11T06:15:34.491Z,13.43
2018-07-11T06:18:04.391Z,12.73
2018-07-11T06:20:34.266Z,13.77
2018-07-11T06:23:04.282Z,12.83
2018-07-11T06:25:36.281Z,13.57
2018-07-11T06:28:06.341Z,13.70
2018-07-11T06:30:36.244Z,13.53
2018-07-11T06:33:06.297Z,13.03
2018-07-11T06:35:39.575Z,12.83
2018-07-11T06:38:09.435Z,13.20
2018-07-11T06:40:39.356Z,11.83
2018-07-11T06:43:09.300Z,13.07
2018-07-11T06:45:39.157Z,12.80
2018-07-11T06:48:09.089Z,13.23
2018-07-11T06:50:39.068Z,13.17
2018-07-11T06:53:09.028Z,12.93
2018-07-11T06:55:39.002Z,11.63
2018-07-11T06:58:09.028Z,13.83
2018-07-11T07:00:39.014Z,13.87
2018-07-11T07:03:08.883Z,12.63
2018-07-11T07:05:38.719Z,13.43
2018-07-11T07:08:08.861Z,14.23
2018-07-11T07:10:38.870Z,14.13
2018-07-11T07:13:08.757Z,14.33
2018-07-11T07:15:38.699Z,13.73
2018-07-11T07:18:08.673Z,13.03
2018-07-11T07:20:38.535Z,30.30
2018-07-11T07:23:08.426Z,21.43
2018-07-11T07:25:38.364Z,16.20
2018-07-11T07:28:08.412Z,14.60
2018-07-11T07:30:38.396Z,14.17
2018-07-11T07:33:08.384Z,12.83
2018-07-11T07:35:38.287Z,13.70
2018-07-11T07:38:08.164Z,13.07
2018-07-11T07:40:37.990Z,12.13
2018-07-11T07:43:07.875Z,12.70
2018-07-11T07:45:37.894Z,12.87
2018-07-11T07:48:07.911Z,13.87
2018-07-11T07:50:37.892Z,11.23
2018-07-11T07:53:08.802Z,11.00
2018-07-11T07:55:38.819Z,12.37
2018-07-11T07:58:08.831Z,11.70
2018-07-11T08:00:38.799Z,14.07
2018-07-11T08:03:08.781Z,10.47
2018-07-11T08:05:38.785Z,10.37
2018-07-11T08:08:08.735Z,10.10
2018-07-11T08:10:38.643Z,11.23
2018-07-11T08:13:08.635Z,12.10
2018-07-11T08:15:38.494Z,11.17
2018-07-11T08:18:08.412Z,11.37
2018-07-11T08:20:38.311Z,10.73
2018-07-11T08:23:20.509Z,9.23
2018-07-11T08:26:02.649Z,10.70
2018-07-11T08:28:40.406Z,11.13
2018-07-11T08:31:50.764Z,10.67
2018-07-11T08:34:31.387Z,10.83
2018-07-11T08:37:14.037Z,9.73
2018-07-11T08:40:43.384Z,9.97
2018-07-11T08:45:34.716Z,10.57
2018-07-11T08:50:19.071Z,11.30
2018-07-11T08:53:00.648Z,10.60
2018-07-11T08:55:41.456Z,10.87
2018-07-11T09:02:34.907Z,11.93
2018-07-11T09:06:14.287Z,10.90
2018-07-11T09:08:59.592Z,10.30
2018-07-11T09:12:43.144Z,10.20
2018-07-11T09:17:28.632Z,10.30
2018-07-11T09:20:15.590Z,10.90
2018-07-11T09:23:00.038Z,9.20
2018-07-11T09:25:29.975Z,9.60
2018-07-11T09:27:59.920Z,8.70
2018-07-11T09:30:29.819Z,8.60
2018-07-11T09:32:59.789Z,8.53
2018-07-11T09:35:29.924Z,8.23
2018-07-11T09:38:00.048Z,8.60
2018-07-11T09:40:30.109Z,9.97
2018-07-11T09:43:00.239Z,17.07
2018-07-11T09:45:30.279Z,8.67
2018-07-11T09:48:00.279Z,7.40
2018-07-11T09:50:30.295Z,6.87
2018-07-11T09:53:00.320Z,7.67
2018-07-11T09:55:30.402Z,7.33
2018-07-11T09:58:00.403Z,7.13
2018-07-11T10:00:35.619Z,6.80
2018-07-11T10:03:06.036Z,6.97
2018-07-11T10:05:35.980Z,6.20
2018-07-11T10:08:09.601Z,5.60
2018-07-11T10:10:39.495Z,4.70
2018-07-11T10:13:09.544Z,5.33
2018-07-11T10:15:39.486Z,5.50
2018-07-11T10:18:09.438Z,5.10
2018-07-11T10:20:39.444Z,5.20
2018-07-11T10:23:09.283Z,6.30
2018-07-11T10:25:39.381Z,6.17
2018-07-11T10:28:20.296Z,6.27
2018-07-11T10:30:50.764Z,6.20
2018-07-11T10:33:20.697Z,6.47
2018-07-11T10:35:50.549Z,6.23
2018-07-11T10:38:20.495Z,7.00
2018-07-11T10:40:50.442Z,7.73
2018-07-11T10:43:20.508Z,7.53
2018-07-11T10:45:50.491Z,7.47
2018-07-11T10:48:20.557Z,5.10
2018-07-11T10:50:50.565Z,5.33
2018-07-11T10:53:20.537Z,5.07
2018-07-11T10:55:50.440Z,4.80
2018-07-11T10:58:20.720Z,5.77
2018-07-11T11:01:05.024Z,5.63
2018-07-11T11:03:33.500Z,4.97
2018-07-11T11:06:03.507Z,6.13
2018-07-11T11:08:33.359Z,4.90
2018-07-11T11:11:03.347Z,5.13
2018-07-11T11:13:33.130Z,4.80
2018-07-11T11:16:03.085Z,4.40
2018-07-11T11:18:33.179Z,4.40
2018-07-11T11:21:03.139Z,4.60
2018-07-11T11:23:32.915Z,4.10
2018-07-11T11:26:02.754Z,4.57
2018-07-11T11:28:32.781Z,5.30
2018-07-11T11:31:02.647Z,4.63
2018-07-11T11:33:32.496Z,5.03
2018-07-11T11:36:02.351Z,4.93
2018-07-11T11:38:32.256Z,5.00
2018-07-11T11:41:02.069Z,4.50
2018-07-11T11:43:31.979Z,4.67
2018-07-11T11:46:01.972Z,5.17
2018-07-11T11:48:31.868Z,4.30
2018-07-11T11:51:01.743Z,4.37
2018-07-11T11:53:31.844Z,4.53
2018-07-11T11:56:01.715Z,4.33
2018-07-11T11:58:31.855Z,4.20
2018-07-11T12:01:01.750Z,4.50
2018-07-11T12:03:31.776Z,4.20
2018-07-11T12:06:01.787Z,4.73
2018-07-11T12:08:51.821Z,5.20
2018-07-11T12:11:21.760Z,4.70
2018-07-11T12:13:51.862Z,4.53
2018-07-11T12:16:21.707Z,4.10
2018-07-11T12:18:51.559Z,4.93
2018-07-11T12:21:21.580Z,4.20
2018-07-11T12:23:51.611Z,4.93
2018-07-11T12:26:21.663Z,5.60
2018-07-11T12:28:51.668Z,5.60
2018-07-11T12:31:21.594Z,4.43
2018-07-11T12:33:51.656Z,4.40
2018-07-11T12:36:21.638Z,4.50
2018-07-11T12:38:55.160Z,5.13
2018-07-11T12:41:25.320Z,5.37
2018-07-11T12:43:55.231Z,5.67
2018-07-11T12:46:25.459Z,3.73
2018-07-11T12:49:00.574Z,5.03
2018-07-11T12:51:30.712Z,4.10
2018-07-11T12:54:00.979Z,7.00
2018-07-11T12:56:30.979Z,5.20
2018-07-11T12:59:01.030Z,5.67
2018-07-11T13:01:31.034Z,6.07
2018-07-11T13:04:01.128Z,5.10
2018-07-11T13:06:31.244Z,3.77
2018-07-11T13:09:01.200Z,3.50
2018-07-11T13:11:31.180Z,4.10
2018-07-11T13:14:01.072Z,3.77
2018-07-11T13:16:31.042Z,4.47
2018-07-11T13:19:00.961Z,4.07
2018-07-11T13:21:30.924Z,4.30
2018-07-11T13:24:00.928Z,3.90
2018-07-11T13:26:30.755Z,3.83
2018-07-11T13:29:00.715Z,4.27
2018-07-11T13:31:30.818Z,3.70
2018-07-11T13:34:07.345Z,4.60
2018-07-11T13:36:37.250Z,3.77
2018-07-11T13:39:15.436Z,4.83
2018-07-11T13:41:45.894Z,3.20
2018-07-11T13:44:15.791Z,2.53
2018-07-11T13:46:45.962Z,2.53
2018-07-11T13:49:15.899Z,2.40
2018-07-11T13:51:45.895Z,3.20
2018-07-11T13:54:15.780Z,2.90
2018-07-11T13:56:46.639Z,2.10
2018-07-11T13:59:17.177Z,2.30
2018-07-11T14:01:47.057Z,2.07
2018-07-11T14:04:17.194Z,2.40
2018-07-11T14:06:47.252Z,2.10
2018-07-11T14:09:17.204Z,2.80
2018-07-11T14:11:47.127Z,2.30
2018-07-11T14:14:17.136Z,2.20
2018-07-11T14:16:47.110Z,2.07
2018-07-11T14:19:17.295Z,2.60
2018-07-11T14:21:47.164Z,2.83
2018-07-11T14:24:17.153Z,3.30
2018-07-11T14:26:47.344Z,3.87
2018-07-11T14:29:17.249Z,3.43
2018-07-11T14:31:47.294Z,2.97
2018-07-11T14:34:17.331Z,3.13
2018-07-11T14:36:47.172Z,3.23
2018-07-11T14:39:17.186Z,4.57
2018-07-11T14:41:47.075Z,5.57
2018-07-11T14:44:17.540Z,4.07
2018-07-11T14:46:47.415Z,4.37
2018-07-11T14:49:17.876Z,2.70
2018-07-11T14:51:47.903Z,3.50
2018-07-11T14:54:17.971Z,3.90
2018-07-11T14:56:48.231Z,3.20
2018-07-11T14:59:18.299Z,4.73
2018-07-11T15:01:48.326Z,3.93
2018-07-11T15:04:18.143Z,4.77
2018-07-11T15:06:48.033Z,4.60
2018-07-11T15:09:18.314Z,4.80
2018-07-11T15:11:48.091Z,4.20
2018-07-11T15:14:18.116Z,4.30
2018-07-11T15:16:48.287Z,4.30
2018-07-11T15:19:18.685Z,4.53
2018-07-11T15:21:48.779Z,4.10
2018-07-11T15:24:18.668Z,4.50
2018-07-11T15:26:48.679Z,4.90
2018-07-11T15:29:19.170Z,4.70
2018-07-11T15:31:49.597Z,4.70
2018-07-11T15:34:19.411Z,4.43
2018-07-11T15:36:49.500Z,5.23
2018-07-11T15:39:19.463Z,4.30
2018-07-11T15:41:49.534Z,9.13
2018-07-11T15:44:19.490Z,5.60
2018-07-11T15:46:49.579Z,5.63
2018-07-11T15:49:19.824Z,4.60
2018-07-11T15:51:50.569Z,4.13
2018-07-11T15:54:20.648Z,4.37
2018-07-11T15:56:50.694Z,4.63
2018-07-11T15:59:20.997Z,4.37
2018-07-11T16:01:55.089Z,4.60
2018-07-11T16:04:35.200Z,4.87
2018-07-11T16:07:06.846Z,4.60
2018-07-11T16:09:59.034Z,4.63
2018-07-11T16:12:28.882Z,4.73
2018-07-11T16:14:58.856Z,4.90
2018-07-11T16:17:28.820Z,4.77
2018-07-11T16:19:58.856Z,5.03
2018-07-11T16:22:28.979Z,4.90
2018-07-11T16:24:58.972Z,6.33
2018-07-11T16:27:28.927Z,4.60
2018-07-11T16:29:58.807Z,4.27
2018-07-11T16:32:28.665Z,4.40
2018-07-11T16:34:58.706Z,5.00
2018-07-11T16:37:28.655Z,4.70
2018-07-11T16:39:58.644Z,4.80
2018-07-11T16:42:28.562Z,4.63
2018-07-11T16:44:58.437Z,4.40
2018-07-11T16:47:28.841Z,4.70
2018-07-11T16:49:58.880Z,4.53
2018-07-11T16:52:29.311Z,4.37
2018-07-11T16:54:59.568Z,4.33
2018-07-11T16:57:37.273Z,4.30
2018-07-11T17:00:09.354Z,4.57
2018-07-11T17:02:41.435Z,5.37
2018-07-11T17:05:12.215Z,4.60
2018-07-11T17:07:50.213Z,4.10
2018-07-11T17:10:22.748Z,4.57
2018-07-11T17:12:58.126Z,4.27
2018-07-11T17:15:30.506Z,4.20
2018-07-11T17:18:00.543Z,3.90
2018-07-11T17:20:30.573Z,4.97
2018-07-11T17:23:06.884Z,5.17
2018-07-11T17:25:41.824Z,4.37
2018-07-11T17:28:11.837Z,5.03
2018-07-11T17:30:43.943Z,4.40
2018-07-11T17:33:14.606Z,4.53
2018-07-11T17:35:50.191Z,4.50
2018-07-11T17:38:25.962Z,4.30
2018-07-11T17:41:11.280Z,4.37
2018-07-11T17:43:41.319Z,4.50
2018-07-11T17:46:11.348Z,4.80
2018-07-11T17:49:45.433Z,4.83
2018-07-11T17:52:15.491Z,4.70
2018-07-11T17:55:08.678Z,4.60
2018-07-11T17:58:10.556Z,4.30
2018-07-11T18:00:46.300Z,4.70
2018-07-11T18:03:36.316Z,7.63
2018-07-11T18:06:16.883Z,5.50
2018-07-11T18:09:09.682Z,4.83
2018-07-11T18:11:53.928Z,5.00
2018-07-11T18:14:37.649Z,5.03
2018-07-11T18:17:12.227Z,5.27
2018-07-11T18:19:53.962Z,4.37
2018-07-11T18:22:41.758Z,5.07
2018-07-11T18:25:22.370Z,5.60
2018-07-11T18:30:10.548Z,6.00
2018-07-11T18:32:53.803Z,5.10
2018-07-11T18:35:35.234Z,7.90
2018-07-11T18:38:13.928Z,5.37
2018-07-11T18:41:28.894Z,4.80
2018-07-11T18:44:06.665Z,5.17
2018-07-11T18:46:55.458Z,5.50
2018-07-11T18:49:49.184Z,6.07
2018-07-11T18:52:33.412Z,4.87
2018-07-11T19:01:18.569Z,5.50
2018-07-11T19:04:05.419Z,9.13
2018-07-11T19:06:47.703Z,6.93
2018-07-11T19:10:26.824Z,7.33
2018-07-11T19:12:59.768Z,5.83
2018-07-11T19:15:47.564Z,6.20
2018-07-11T19:18:29.041Z,5.40
2018-07-11T19:21:11.680Z,6.43
2018-07-11T19:23:58.881Z,6.20
2018-07-11T19:27:05.388Z,6.20
2018-07-11T19:29:44.252Z,7.07
2018-07-11T19:32:32.187Z,6.80
2018-07-11T19:37:45.516Z,6.70
2018-07-11T19:40:56.464Z,10.87
2018-07-11T19:43:48.605Z,10.90
2018-07-11T19:46:45.776Z,10.33
2018-07-11T19:49:31.872Z,10.27
2018-07-11T19:54:22.480Z,9.53
2018-07-11T19:56:52.524Z,9.90
2018-07-11T19:59:22.426Z,9.40
2018-07-11T20:01:52.487Z,10.17
2018-07-11T20:04:22.400Z,8.30
2018-07-11T20:06:52.379Z,7.90
2018-07-11T20:09:22.640Z,9.20
2018-07-11T20:11:52.603Z,11.07
2018-07-11T20:14:22.615Z,10.77
2018-07-11T20:16:52.632Z,11.63
2018-07-11T20:19:22.646Z,14.00
2018-07-11T20:21:52.706Z,13.37
2018-07-11T20:24:23.090Z,10.80
2018-07-11T20:26:53.174Z,10.17
2018-07-11T20:29:23.188Z,9.97
2018-07-11T20:31:53.120Z,10.77
2018-07-11T20:34:23.100Z,12.07
2018-07-11T20:36:53.145Z,12.77
2018-07-11T20:39:23.171Z,12.43
2018-07-11T20:41:53.165Z,12.33
2018-07-11T20:44:23.048Z,8.70
2018-07-11T20:46:53.088Z,9.43
2018-07-11T20:49:28.566Z,7.40
2018-07-11T20:51:58.574Z,8.03
2018-07-11T20:54:28.460Z,7.57
2018-07-11T20:56:58.541Z,7.30
2018-07-11T20:59:39.450Z,8.07
2018-07-11T21:02:20.377Z,8.13
2018-07-11T21:05:17.503Z,7.87
2018-07-11T21:07:58.374Z,9.03
2018-07-11T21:11:41.740Z,8.10
2018-07-11T21:16:27.663Z,7.00
2018-07-11T21:19:04.556Z,7.17
2018-07-11T21:21:35.267Z,7.10
2018-07-11T21:24:06.124Z,7.83
2018-07-11T21:26:36.433Z,9.70
2018-07-11T21:29:06.412Z,8.03
2018-07-11T21:31:36.478Z,7.27
2018-07-11T21:34:06.359Z,7.10
2018-07-11T21:36:36.255Z,7.13
2018-07-11T21:39:06.784Z,6.90
2018-07-11T21:41:36.796Z,6.27
2018-07-11T21:44:07.171Z,6.20
2018-07-11T21:46:37.131Z,5.80
2018-07-11T21:49:07.100Z,5.67
2018-07-11T21:51:36.971Z,5.43
2018-07-11T21:54:06.843Z,5.33
2018-07-11T21:56:36.776Z,5.07
2018-07-11T21:59:06.704Z,5.80
2018-07-11T22:01:36.825Z,5.57
2018-07-11T22:04:06.664Z,4.90
2018-07-11T22:06:36.696Z,5.73
2018-07-11T22:09:07.164Z,6.17
2018-07-11T22:11:37.235Z,5.57
2018-07-11T22:14:07.342Z,5.57
2018-07-11T22:16:37.288Z,5.67
2018-07-11T22:19:07.199Z,5.00
2018-07-11T22:21:35.584Z,5.27
2018-07-11T22:24:03.677Z,5.30
2018-07-11T22:26:31.711Z,4.70
2018-07-11T22:28:59.971Z,5.20
2018-07-11T22:31:28.108Z,5.13
2018-07-11T22:33:56.249Z,4.70
2018-07-11T22:36:24.362Z,4.63
2018-07-11T22:38:52.528Z,4.97
2018-07-11T22:41:20.660Z,5.00
2018-07-11T22:43:48.798Z,4.90
2018-07-11T22:46:17.006Z,5.03
2018-07-11T22:48:45.168Z,5.27
2018-07-11T22:51:13.227Z,5.00
2018-07-11T22:53:41.481Z,4.63
2018-07-11T22:56:09.531Z,5.23
2018-07-11T22:58:37.711Z,5.20
2018-07-11T23:01:05.880Z,4.40
2018-07-11T23:03:34.040Z,5.03
2018-07-11T23:06:02.084Z,5.27
2018-07-11T23:08:30.115Z,5.00
2018-07-11T23:10:58.233Z,5.33
2018-07-11T23:13:26.296Z,5.17
2018-07-11T23:15:54.436Z,5.40
2018-07-11T23:18:22.616Z,4.93
2018-07-11T23:20:50.767Z,6.70
2018-07-11T23:23:18.936Z,5.17
2018-07-11T23:25:47.152Z,5.17
2018-07-11T23:28:15.327Z,5.10
2018-07-11T23:30:43.488Z,5.33
2018-07-11T23:33:11.568Z,5.33
2018-07-11T23:35:39.760Z,4.83
2018-07-11T23:38:07.974Z,5.30
2018-07-11T23:40:36.089Z,5.37
2018-07-11T23:43:04.128Z,5.10
2018-07-11T23:45:32.201Z,4.70
2018-07-11T23:48:00.380Z,4.73
2018-07-11T23:50:28.576Z,4.93
2018-07-11T23:52:56.708Z,5.40
2018-07-11T23:55:24.942Z,5.23
2018-07-11T23:57:53.003Z,5.27
